Time;durP1;ratioP1;P1;durP2;ratioP2;P2;SDS_P1;SDS_P2;PMS_P1;PMS_P2;Temp;Humidity;BMP_temperature;BMP_pressure;BME280_temperature;BME280_humidity;BME280_pressure;Samples;Min_cycle;Max_cycle;Signal;HPM_P1;HPM_P2
2023/09/24 00:00:48;;;;;;;7.72;2.42;;;;;;;;;;5079487;28;20035;-66
2023/09/24 00:03:14;;;;;;;6.72;2.28;;;;;;;;;;5081277;28;20040;-67
2023/09/24 00:05:42;;;;;;;8.15;2.88;;;;;;;;;;5081522;28;20040;-67
2023/09/24 00:08:08;;;;;;;6.38;2.47;;;;;;;;;;5080924;28;20058;-67
2023/09/24 00:10:35;;;;;;;5.53;2.20;;;;;;;;;;5080277;28;20489;-66
2023/09/24 00:13:01;;;;;;;6.47;2.20;;;;;;;;;;5079029;28;20158;-66
2023/09/24 00:15:27;;;;;;;8.75;2.42;;;;;;;;;;5080523;28;20028;-67
2023/09/24 00:17:53;;;;;;;5.88;2.20;;;;;;;;;;5081117;28;20040;-67
2023/09/24 00:20:19;;;;;;;7.72;2.25;;;;;;;;;;5079921;28;20032;-67
2023/09/24 00:22:47;;;;;;;6.78;2.58;;;;;;;;;;5080438;28;20038;-67
2023/09/24 00:25:14;;;;;;;5.50;2.30;;;;;;;;;;5079708;28;20491;-67
2023/09/24 00:27:40;;;;;;;11.57;2.72;;;;;;;;;;5078661;28;21096;-66
2023/09/24 00:30:09;;;;;;;5.95;2.10;;;;;;;;;;5080520;28;20020;-67
2023/09/24 00:32:35;;;;;;;7.88;2.28;;;;;;;;;;5080487;28;20082;-66
2023/09/24 00:35:01;;;;;;;8.40;1.88;;;;;;;;;;5060884;28;20027;-67
2023/09/24 00:37:28;;;;;;;5.53;2.17;;;;;;;;;;5079756;28;20122;-67
2023/09/24 00:39:54;;;;;;;6.75;2.70;;;;;;;;;;5080324;28;20028;-66
2023/09/24 00:42:22;;;;;;;6.65;2.08;;;;;;;;;;5080650;28;20028;-67
2023/09/24 00:44:48;;;;;;;5.63;2.38;;;;;;;;;;5079601;28;20089;-66
2023/09/24 00:47:16;;;;;;;8.75;2.67;;;;;;;;;;5079623;28;20084;-67
2023/09/24 00:49:42;;;;;;;8.52;2.30;;;;;;;;;;5080785;28;20032;-67
2023/09/24 00:52:10;;;;;;;5.53;2.22;;;;;;;;;;5081114;28;21041;-67
2023/09/24 00:54:36;;;;;;;5.40;2.40;;;;;;;;;;5080026;28;20017;-67
2023/09/24 00:57:03;;;;;;;7.03;2.30;;;;;;;;;;5079616;28;20039;-67
2023/09/24 00:59:29;;;;;;;7.28;2.75;;;;;;;;;;5079746;28;20055;-67
2023/09/24 01:01:57;;;;;;;9.75;2.28;;;;;;;;;;5079567;28;20521;-66
2023/09/24 01:04:23;;;;;;;5.25;2.65;;;;;;;;;;5078932;28;20039;-66
2023/09/24 01:06:49;;;;;;;7.70;2.28;;;;;;;;;;5080539;28;20039;-66
2023/09/24 01:09:21;;;;;;;9.45;3.38;;;;;;;;;;5078814;28;20050;-66
2023/09/24 01:11:52;;;;;;;6.18;2.22;;;;;;;;;;5080519;28;20080;-66
2023/09/24 01:14:19;;;;;;;6.68;2.75;;;;;;;;;;5079680;28;20082;-67
2023/09/24 01:16:45;;;;;;;5.60;2.72;;;;;;;;;;5080453;28;20547;-67
2023/09/24 01:19:11;;;;;;;6.75;2.50;;;;;;;;;;5079819;28;20119;-66
2023/09/24 01:21:37;;;;;;;8.20;2.40;;;;;;;;;;5079123;28;20051;-67
2023/09/24 01:24:04;;;;;;;8.55;2.30;;;;;;;;;;5079338;28;20402;-66
2023/09/24 01:26:31;;;;;;;10.20;2.72;;;;;;;;;;5079988;28;21047;-66
2023/09/24 01:28:58;;;;;;;4.40;2.28;;;;;;;;;;5079504;28;20042;-67
2023/09/24 01:31:26;;;;;;;8.15;2.63;;;;;;;;;;5079061;28;20035;-66
2023/09/24 01:33:52;;;;;;;6.28;2.20;;;;;;;;;;5079044;28;20067;-67
2023/09/24 01:36:20;;;;;;;6.38;2.20;;;;;;;;;;5079625;28;20100;-67
2023/09/24 01:38:47;;;;;;;3.83;2.20;;;;;;;;;;5079975;28;20039;-67
2023/09/24 01:41:13;;;;;;;5.45;2.00;;;;;;;;;;5079895;28;20489;-67
2023/09/24 01:43:43;;;;;;;7.30;1.50;;;;;;;;;;5078308;28;20034;-67
2023/09/24 01:46:10;;;;;;;4.47;1.88;;;;;;;;;;5079018;28;20095;-66
2023/09/24 01:48:36;;;;;;;4.35;1.60;;;;;;;;;;5082470;28;20095;-67
2023/09/24 01:51:07;;;;;;;12.07;1.33;;;;;;;;;;5082610;28;20034;-67
2023/09/24 01:53:33;;;;;;;47.70;2.42;;;;;;;;;;5082849;28;20035;-67
2023/09/24 01:56:01;;;;;;;6.57;1.15;;;;;;;;;;5080180;28;20061;-67
2023/09/24 01:58:27;;;;;;;3.72;0.88;;;;;;;;;;5082197;28;20119;-66
2023/09/24 02:00:53;;;;;;;4.38;0.90;;;;;;;;;;5082311;28;20125;-66
2023/09/24 02:03:19;;;;;;;3.95;0.88;;;;;;;;;;5081992;28;20032;-66
2023/09/24 02:05:46;;;;;;;3.20;1.17;;;;;;;;;;5082043;28;20036;-67
2023/09/24 02:08:12;;;;;;;6.05;1.30;;;;;;;;;;5081902;28;20077;-67
2023/09/24 02:10:39;;;;;;;6.00;1.33;;;;;;;;;;5082806;28;20392;-66
2023/09/24 02:13:06;;;;;;;11.77;1.33;;;;;;;;;;5082861;28;20047;-66
2023/09/24 02:15:33;;;;;;;2.47;1.13;;;;;;;;;;5083049;28;20043;-67
2023/09/24 02:17:59;;;;;;;2.78;1.20;;;;;;;;;;5081450;27;20031;-66
2023/09/24 02:20:31;;;;;;;1.92;0.75;;;;;;;;;;5082336;28;20122;-66
2023/09/24 02:22:58;;;;;;;8.75;0.90;;;;;;;;;;5082823;28;20042;-67
2023/09/24 02:25:25;;;;;;;1.30;0.70;;;;;;;;;;5082739;28;20067;-67
2023/09/24 02:27:52;;;;;;;4.95;0.88;;;;;;;;;;5081878;28;20027;-67
2023/09/24 02:30:18;;;;;;;10.65;0.80;;;;;;;;;;5081843;28;20196;-66
2023/09/24 02:32:45;;;;;;;1.15;0.43;;;;;;;;;;5082687;28;20024;-67
2023/09/24 02:35:12;;;;;;;3.47;0.68;;;;;;;;;;5082817;28;20040;-67
2023/09/24 02:37:44;;;;;;;1.60;0.70;;;;;;;;;;5082585;28;20016;-67
2023/09/24 02:40:28;;;;;;;3.05;1.00;;;;;;;;;;5082713;28;20677;-67
2023/09/24 02:42:56;;;;;;;2.40;0.60;;;;;;;;;;5081958;28;20042;-67
2023/09/24 02:45:22;;;;;;;2.03;0.80;;;;;;;;;;5081687;28;20036;-67
2023/09/24 02:47:49;;;;;;;9.73;0.73;;;;;;;;;;5082198;28;20502;-67
2023/09/24 02:50:15;;;;;;;0.88;0.50;;;;;;;;;;5082182;28;20088;-66
2023/09/24 02:52:42;;;;;;;1.73;0.30;;;;;;;;;;5072596;28;20034;-67
2023/09/24 02:55:10;;;;;;;9.82;0.60;;;;;;;;;;5081484;28;20031;-67
2023/09/24 02:57:37;;;;;;;21.65;1.13;;;;;;;;;;5080554;28;20636;-66
2023/09/24 03:00:08;;;;;;;6.63;0.70;;;;;;;;;;5062244;28;20062;-67
2023/09/24 03:02:37;;;;;;;15.65;1.00;;;;;;;;;;5082501;28;20670;-66
2023/09/24 03:05:04;;;;;;;28.40;1.20;;;;;;;;;;5081499;28;20050;-67
2023/09/24 03:07:30;;;;;;;33.13;1.42;;;;;;;;;;5082275;28;20086;-67
2023/09/24 03:09:56;;;;;;;24.52;1.30;;;;;;;;;;5081233;28;20040;-66
2023/09/24 03:12:22;;;;;;;0.40;0.40;;;;;;;;;;5080289;28;20067;-67
2023/09/24 03:14:48;;;;;;;2.22;0.75;;;;;;;;;;5080770;28;20035;-67
2023/09/24 03:17:14;;;;;;;16.45;1.17;;;;;;;;;;5080493;28;20028;-66
2023/09/24 03:19:41;;;;;;;17.17;1.20;;;;;;;;;;5080839;28;20031;-67
2023/09/24 03:22:07;;;;;;;3.70;0.73;;;;;;;;;;5081907;28;20499;-66
2023/09/24 03:24:33;;;;;;;2.22;1.00;;;;;;;;;;5080875;28;20034;-66
2023/09/24 03:26:59;;;;;;;2.40;1.25;;;;;;;;;;5081490;28;20032;-67
2023/09/24 03:29:25;;;;;;;4.32;1.50;;;;;;;;;;5081152;28;20040;-66
2023/09/24 03:31:51;;;;;;;4.05;1.45;;;;;;;;;;5081220;28;20038;-66
2023/09/24 03:34:17;;;;;;;2.65;1.17;;;;;;;;;;5081500;28;20038;-67
2023/09/24 03:36:45;;;;;;;2.30;1.00;;;;;;;;;;5081541;28;20036;-66
2023/09/24 03:39:11;;;;;;;2.63;1.10;;;;;;;;;;5080617;28;20068;-67
2023/09/24 03:41:37;;;;;;;3.28;1.40;;;;;;;;;;5080792;28;20074;-66
2023/09/24 03:44:03;;;;;;;3.97;1.60;;;;;;;;;;5081261;28;20107;-66
2023/09/24 03:46:29;;;;;;;4.95;2.50;;;;;;;;;;5081591;28;20035;-66
2023/09/24 03:48:55;;;;;;;3.17;1.70;;;;;;;;;;5081002;28;21067;-67
2023/09/24 03:51:21;;;;;;;3.63;1.90;;;;;;;;;;5081145;28;20134;-66
2023/09/24 03:53:47;;;;;;;3.95;2.03;;;;;;;;;;5080888;28;20115;-66
2023/09/24 03:56:14;;;;;;;6.57;2.55;;;;;;;;;;5080831;28;20115;-66
2023/09/24 03:58:40;;;;;;;7.25;2.72;;;;;;;;;;5059489;28;20114;-67
2023/09/24 04:01:12;;;;;;;7.93;3.03;;;;;;;;;;5079999;28;20063;-66
2023/09/24 04:03:38;;;;;;;5.30;3.03;;;;;;;;;;5079396;28;20031;-66
2023/09/24 04:06:09;;;;;;;6.65;3.08;;;;;;;;;;5077784;28;20027;-67
2023/09/24 04:08:36;;;;;;;5.97;3.50;;;;;;;;;;5079365;28;20111;-67
2023/09/24 04:11:02;;;;;;;6.07;2.88;;;;;;;;;;5077650;28;20031;-66
2023/09/24 04:13:28;;;;;;;5.15;2.80;;;;;;;;;;5079141;28;20163;-67
2023/09/24 04:15:54;;;;;;;6.45;3.17;;;;;;;;;;5080795;28;20166;-67
2023/09/24 04:18:20;;;;;;;7.40;3.42;;;;;;;;;;5079012;28;20179;-66
2023/09/24 04:20:46;;;;;;;7.55;2.95;;;;;;;;;;5080003;28;20040;-66
2023/09/24 04:23:12;;;;;;;7.38;3.55;;;;;;;;;;5079465;28;20035;-66
2023/09/24 04:25:39;;;;;;;8.60;3.55;;;;;;;;;;5060687;28;20043;-66
2023/09/24 04:28:05;;;;;;;6.30;3.38;;;;;;;;;;5063217;28;20129;-66
2023/09/24 04:30:31;;;;;;;7.00;3.50;;;;;;;;;;5080441;28;20397;-66
2023/09/24 04:32:58;;;;;;;7.22;3.75;;;;;;;;;;5081425;28;20667;-66
2023/09/24 04:35:27;;;;;;;6.72;3.55;;;;;;;;;;5080481;28;20085;-66
2023/09/24 04:37:53;;;;;;;6.40;3.30;;;;;;;;;;5080244;28;20024;-66
2023/09/24 04:40:19;;;;;;;6.63;3.38;;;;;;;;;;5081031;28;20567;-67
2023/09/24 04:42:46;;;;;;;8.48;3.83;;;;;;;;;;5080863;28;20035;-67
2023/09/24 04:45:12;;;;;;;6.07;3.05;;;;;;;;;;5080321;28;20442;-66
2023/09/24 04:47:39;;;;;;;6.63;3.60;;;;;;;;;;5080836;28;20092;-66
2023/09/24 04:50:07;;;;;;;8.02;3.80;;;;;;;;;;5081029;28;20087;-66
2023/09/24 04:52:33;;;;;;;8.77;3.53;;;;;;;;;;5078034;28;20953;-66
2023/09/24 04:54:59;;;;;;;7.53;3.60;;;;;;;;;;5079706;28;20848;-66
2023/09/24 04:57:25;;;;;;;7.75;4.07;;;;;;;;;;5080006;28;20387;-66
2023/09/24 04:59:53;;;;;;;7.25;3.65;;;;;;;;;;5080276;28;20083;-66
2023/09/24 05:02:23;;;;;;;8.23;4.22;;;;;;;;;;5080628;28;20048;-66
2023/09/24 05:04:50;;;;;;;8.15;3.60;;;;;;;;;;5080302;28;20146;-66
2023/09/24 05:07:16;;;;;;;9.30;4.65;;;;;;;;;;5080409;28;20036;-66
2023/09/24 05:09:43;;;;;;;6.18;3.88;;;;;;;;;;5080340;28;20027;-66
2023/09/24 05:12:10;;;;;;;7.90;3.90;;;;;;;;;;5078799;28;20061;-66
2023/09/24 05:14:36;;;;;;;8.52;3.70;;;;;;;;;;5080079;28;20078;-67
2023/09/24 05:17:02;;;;;;;11.32;4.47;;;;;;;;;;5080581;28;20479;-66
2023/09/24 05:19:28;;;;;;;7.63;3.83;;;;;;;;;;5080132;28;20031;-66
2023/09/24 05:21:54;;;;;;;8.07;3.70;;;;;;;;;;5081097;28;20043;-67
2023/09/24 05:24:20;;;;;;;6.78;3.50;;;;;;;;;;5083657;28;20046;-66
2023/09/24 05:26:46;;;;;;;8.13;4.05;;;;;;;;;;5083641;28;20485;-66
2023/09/24 05:29:12;;;;;;;10.25;4.18;;;;;;;;;;5083777;28;20028;-67
2023/09/24 05:31:38;;;;;;;10.93;4.57;;;;;;;;;;5084197;28;21724;-66
2023/09/24 05:34:06;;;;;;;10.18;4.25;;;;;;;;;;5083517;28;20106;-66
2023/09/24 05:36:32;;;;;;;7.88;4.20;;;;;;;;;;5082730;28;20020;-66
2023/09/24 05:38:58;;;;;;;8.48;4.60;;;;;;;;;;5084818;27;20139;-65
2023/09/24 05:41:24;;;;;;;7.80;3.83;;;;;;;;;;5072508;28;20028;-66
2023/09/24 05:43:54;;;;;;;6.78;3.58;;;;;;;;;;5083523;28;20043;-66
2023/09/24 05:46:20;;;;;;;6.28;3.88;;;;;;;;;;5083630;28;20110;-66
2023/09/24 05:48:46;;;;;;;7.20;3.97;;;;;;;;;;5082413;28;20043;-66
2023/09/24 05:51:12;;;;;;;9.82;4.13;;;;;;;;;;5082663;28;20031;-66
2023/09/24 05:53:38;;;;;;;9.70;4.97;;;;;;;;;;5080454;28;20475;-66
2023/09/24 05:56:04;;;;;;;11.98;5.07;;;;;;;;;;5066552;28;20024;-67
2023/09/24 05:58:30;;;;;;;11.02;4.60;;;;;;;;;;5082541;27;20044;-66
2023/09/24 06:00:58;;;;;;;7.40;3.63;;;;;;;;;;5078600;28;20160;-66
2023/09/24 06:03:24;;;;;;;10.15;4.40;;;;;;;;;;5082838;27;20024;-66
2023/09/24 06:05:50;;;;;;;9.50;4.30;;;;;;;;;;5083485;27;20027;-66
2023/09/24 06:08:16;;;;;;;7.65;4.22;;;;;;;;;;5080976;28;20172;-67
2023/09/24 06:10:43;;;;;;;11.35;4.10;;;;;;;;;;5082707;28;20562;-66
2023/09/24 06:13:11;;;;;;;7.68;4.28;;;;;;;;;;5082641;27;20032;-66
2023/09/24 06:15:37;;;;;;;8.57;4.00;;;;;;;;;;5084693;27;20035;-65
2023/09/24 06:18:04;;;;;;;9.32;4.47;;;;;;;;;;5082636;27;20035;-66
2023/09/24 06:20:30;;;;;;;9.70;4.53;;;;;;;;;;5080155;27;20039;-66
2023/09/24 06:22:57;;;;;;;10.95;4.97;;;;;;;;;;5061073;27;20035;-66
2023/09/24 06:25:24;;;;;;;9.85;4.50;;;;;;;;;;5079429;28;20047;-66
2023/09/24 06:27:50;;;;;;;8.27;4.40;;;;;;;;;;5079699;28;20040;-66
2023/09/24 06:30:16;;;;;;;10.23;5.07;;;;;;;;;;5081539;28;20693;-66
2023/09/24 06:32:42;;;;;;;9.68;4.88;;;;;;;;;;5077844;27;20597;-66
2023/09/24 06:35:09;;;;;;;9.88;4.40;;;;;;;;;;5059648;28;20795;-66
2023/09/24 06:37:35;;;;;;;10.60;4.57;;;;;;;;;;5081610;28;20039;-67
2023/09/24 06:40:01;;;;;;;9.85;4.22;;;;;;;;;;5081742;28;20842;-67
2023/09/24 06:42:27;;;;;;;10.32;4.00;;;;;;;;;;5078671;27;20024;-67
2023/09/24 06:44:53;;;;;;;9.70;5.13;;;;;;;;;;5080349;27;20031;-63
2023/09/24 06:47:20;;;;;;;12.90;4.82;;;;;;;;;;5081534;28;20073;-63
2023/09/24 06:49:49;;;;;;;8.77;4.80;;;;;;;;;;5078211;28;20088;-63
2023/09/24 06:52:15;;;;;;;9.63;4.75;;;;;;;;;;5080329;28;20035;-63
2023/09/24 06:54:41;;;;;;;9.52;4.38;;;;;;;;;;5079097;28;20077;-63
2023/09/24 06:57:07;;;;;;;10.48;4.40;;;;;;;;;;5081417;28;20544;-63
2023/09/24 06:59:33;;;;;;;10.68;4.47;;;;;;;;;;5081122;27;20044;-63
2023/09/24 07:02:00;;;;;;;10.95;5.18;;;;;;;;;;5078476;28;20024;-63
2023/09/24 07:04:26;;;;;;;10.15;4.90;;;;;;;;;;5077785;27;20035;-63
2023/09/24 07:06:52;;;;;;;9.75;4.68;;;;;;;;;;5081322;28;20039;-63
2023/09/24 07:09:18;;;;;;;9.35;4.57;;;;;;;;;;5081114;28;20116;-63
2023/09/24 07:11:44;;;;;;;10.90;4.45;;;;;;;;;;5080511;27;20101;-63
2023/09/24 07:14:11;;;;;;;9.30;4.35;;;;;;;;;;5081727;28;20036;-63
2023/09/24 07:16:37;;;;;;;11.77;4.65;;;;;;;;;;5080357;28;20154;-63
2023/09/24 07:19:03;;;;;;;10.90;4.85;;;;;;;;;;5079702;28;20394;-63
2023/09/24 07:21:30;;;;;;;10.57;4.60;;;;;;;;;;5079398;27;20031;-63
2023/09/24 07:23:57;;;;;;;8.45;4.40;;;;;;;;;;5076982;27;20027;-63
2023/09/24 07:26:23;;;;;;;9.80;4.72;;;;;;;;;;5076995;27;20040;-63
2023/09/24 07:28:50;;;;;;;11.07;5.05;;;;;;;;;;5078625;28;20034;-63
2023/09/24 07:31:21;;;;;;;9.15;5.15;;;;;;;;;;5080989;28;20085;-63
2023/09/24 07:33:48;;;;;;;9.68;4.55;;;;;;;;;;5078808;28;20038;-63
2023/09/24 07:36:14;;;;;;;11.80;5.07;;;;;;;;;;5079804;28;20031;-63
2023/09/24 07:38:41;;;;;;;9.60;4.60;;;;;;;;;;5079408;28;20031;-63
2023/09/24 07:41:07;;;;;;;8.77;4.55;;;;;;;;;;5078319;27;20143;-63
2023/09/24 07:43:37;;;;;;;8.52;4.22;;;;;;;;;;5073510;27;21064;-63
2023/09/24 07:46:03;;;;;;;10.02;4.88;;;;;;;;;;5074187;27;20758;-63
2023/09/24 07:48:30;;;;;;;9.88;4.05;;;;;;;;;;5073868;28;20043;-63
2023/09/24 07:50:56;;;;;;;12.48;4.28;;;;;;;;;;5073907;27;20038;-63
2023/09/24 07:53:22;;;;;;;8.93;3.97;;;;;;;;;;5078122;27;20213;-63
2023/09/24 07:55:55;;;;;;;9.52;5.25;;;;;;;;;;5077572;27;21041;-63
2023/09/24 07:58:21;;;;;;;11.00;4.30;;;;;;;;;;5076300;28;20036;-63
2023/09/24 08:00:47;;;;;;;13.32;4.40;;;;;;;;;;5077128;28;20524;-63
2023/09/24 08:03:13;;;;;;;9.02;4.20;;;;;;;;;;5072184;27;20110;-64
2023/09/24 08:05:40;;;;;;;11.35;4.50;;;;;;;;;;5074248;27;20036;-63
2023/09/24 08:08:06;;;;;;;9.50;4.63;;;;;;;;;;5076467;28;20040;-63
2023/09/24 08:10:32;;;;;;;9.50;3.72;;;;;;;;;;5075472;28;20032;-63
2023/09/24 08:12:59;;;;;;;12.00;4.38;;;;;;;;;;5076617;27;20147;-63
2023/09/24 08:15:25;;;;;;;14.25;4.97;;;;;;;;;;5074552;28;20498;-63
2023/09/24 08:17:51;;;;;;;11.73;4.75;;;;;;;;;;5075320;28;20097;-63
2023/09/24 08:20:17;;;;;;;9.77;4.38;;;;;;;;;;5076358;28;20020;-64
2023/09/24 08:22:43;;;;;;;13.68;5.38;;;;;;;;;;5075264;27;20062;-64
2023/09/24 08:25:09;;;;;;;15.68;4.78;;;;;;;;;;5075979;28;20124;-64
2023/09/24 08:27:35;;;;;;;8.82;4.13;;;;;;;;;;5077650;28;20119;-64
2023/09/24 08:30:03;;;;;;;10.73;4.47;;;;;;;;;;5080394;28;20038;-64
2023/09/24 08:32:29;;;;;;;7.63;3.90;;;;;;;;;;5078398;28;20024;-64
2023/09/24 08:34:55;;;;;;;8.07;3.47;;;;;;;;;;5076616;28;20119;-64
2023/09/24 08:37:21;;;;;;;10.00;3.83;;;;;;;;;;5078288;27;20028;-64
2023/09/24 08:39:47;;;;;;;9.00;3.90;;;;;;;;;;5080149;28;20103;-64
2023/09/24 08:42:15;;;;;;;8.05;3.88;;;;;;;;;;5079746;28;20050;-64
2023/09/24 08:44:41;;;;;;;9.73;4.25;;;;;;;;;;5080619;28;20059;-64
2023/09/24 08:47:07;;;;;;;12.43;4.07;;;;;;;;;;5079916;28;20150;-64
2023/09/24 08:49:33;;;;;;;10.05;3.67;;;;;;;;;;5079826;28;20051;-64
2023/09/24 08:52:01;;;;;;;8.10;3.30;;;;;;;;;;5060396;28;20074;-63
2023/09/24 08:54:29;;;;;;;10.50;3.97;;;;;;;;;;5079924;28;20027;-63
2023/09/24 08:56:55;;;;;;;7.80;3.55;;;;;;;;;;5082286;28;20643;-64
2023/09/24 08:59:22;;;;;;;10.45;3.65;;;;;;;;;;5085015;28;20640;-64
2023/09/24 09:01:54;;;;;;;6.70;2.95;;;;;;;;;;5083884;28;20036;-64
2023/09/24 09:04:20;;;;;;;8.45;3.42;;;;;;;;;;5085050;28;21729;-64
2023/09/24 09:06:47;;;;;;;10.32;3.40;;;;;;;;;;5065294;28;20558;-64
2023/09/24 09:09:24;;;;;;;8.13;3.17;;;;;;;;;;5084338;28;20036;-64
2023/09/24 09:11:50;;;;;;;7.35;3.08;;;;;;;;;;5084102;28;20039;-63
2023/09/24 09:14:16;;;;;;;10.52;3.45;;;;;;;;;;5084765;28;20085;-64
2023/09/24 09:16:57;;;;;;;8.52;3.00;;;;;;;;;;5083294;28;20065;-64
2023/09/24 09:19:23;;;;;;;8.90;3.10;;;;;;;;;;5084155;28;20418;-64
2023/09/24 09:21:49;;;;;;;9.95;3.03;;;;;;;;;;5084320;28;21897;-64
2023/09/24 09:24:25;;;;;;;11.98;3.20;;;;;;;;;;5063429;28;20559;-64
2023/09/24 09:26:57;;;;;;;5.95;2.45;;;;;;;;;;5084484;28;20042;-64
2023/09/24 09:29:24;;;;;;;8.48;2.60;;;;;;;;;;5084649;28;21727;-64
2023/09/24 09:31:50;;;;;;;9.05;2.53;;;;;;;;;;5084026;28;20063;-64
2023/09/24 09:34:17;;;;;;;6.65;2.47;;;;;;;;;;5084039;28;20024;-64
2023/09/24 09:36:43;;;;;;;7.47;2.67;;;;;;;;;;5083864;28;20162;-64
2023/09/24 09:39:09;;;;;;;6.47;2.15;;;;;;;;;;5082391;28;20067;-64
2023/09/24 09:41:35;;;;;;;9.05;2.40;;;;;;;;;;5082852;28;20036;-64
2023/09/24 09:44:05;;;;;;;7.93;2.80;;;;;;;;;;5082470;28;20023;-64
2023/09/24 09:46:32;;;;;;;7.55;2.42;;;;;;;;;;5083063;28;20039;-64
2023/09/24 09:49:02;;;;;;;10.98;2.25;;;;;;;;;;5082569;28;20125;-64
2023/09/24 09:51:33;;;;;;;9.15;2.53;;;;;;;;;;5083356;28;20028;-64
2023/09/24 09:54:05;;;;;;;7.40;2.53;;;;;;;;;;5082882;28;20110;-64
2023/09/24 09:56:32;;;;;;;9.02;2.50;;;;;;;;;;5083927;28;20024;-63
2023/09/24 09:58:58;;;;;;;7.13;2.15;;;;;;;;;;5083852;28;20382;-64
2023/09/24 10:01:24;;;;;;;7.05;2.42;;;;;;;;;;5083626;28;20154;-64
2023/09/24 10:03:51;;;;;;;6.63;2.10;;;;;;;;;;5083669;28;20035;-64
2023/09/24 10:06:17;;;;;;;7.70;2.45;;;;;;;;;;5082898;28;20500;-63
2023/09/24 10:08:47;;;;;;;7.68;2.17;;;;;;;;;;5082816;28;20089;-64
2023/09/24 10:11:33;;;;;;;8.45;2.25;;;;;;;;;;5082494;28;20028;-64
2023/09/24 10:14:00;;;;;;;8.38;2.45;;;;;;;;;;5082952;28;20031;-64
2023/09/24 10:16:26;;;;;;;6.90;1.90;;;;;;;;;;5083131;28;20042;-63
2023/09/24 10:18:56;;;;;;;6.15;1.98;;;;;;;;;;5083728;28;20016;-64
2023/09/24 10:21:28;;;;;;;7.32;2.17;;;;;;;;;;5083387;28;20849;-64
2023/09/24 10:23:54;;;;;;;6.53;2.00;;;;;;;;;;5083314;28;20028;-64
2023/09/24 10:26:39;;;;;;;5.18;1.70;;;;;;;;;;5084388;28;20028;-64
2023/09/24 10:29:05;;;;;;;7.30;2.20;;;;;;;;;;5080441;28;20116;-64
2023/09/24 10:31:32;;;;;;;6.60;2.00;;;;;;;;;;5083296;28;20028;-64
2023/09/24 10:34:02;;;;;;;8.75;2.38;;;;;;;;;;5083873;28;20036;-64
2023/09/24 10:36:30;;;;;;;6.03;1.60;;;;;;;;;;5082785;28;20028;-64
2023/09/24 10:39:05;;;;;;;8.30;1.85;;;;;;;;;;5082414;28;20070;-64
2023/09/24 10:41:35;;;;;;;8.50;2.10;;;;;;;;;;5082679;28;20028;-64
2023/09/24 10:44:20;;;;;;;8.00;2.28;;;;;;;;;;5082905;28;20128;-64
2023/09/24 10:46:46;;;;;;;6.40;1.70;;;;;;;;;;5082586;28;20081;-64
2023/09/24 10:49:17;;;;;;;9.00;2.00;;;;;;;;;;5062580;28;20051;-64
2023/09/24 10:51:44;;;;;;;8.65;1.83;;;;;;;;;;5082759;28;20123;-64
2023/09/24 10:54:16;;;;;;;5.05;1.70;;;;;;;;;;5082734;28;20506;-64
2023/09/24 10:56:48;;;;;;;4.32;1.80;;;;;;;;;;5082714;28;20020;-64
2023/09/24 10:59:15;;;;;;;5.55;2.13;;;;;;;;;;5082389;28;20186;-64
2023/09/24 11:01:42;;;;;;;9.85;2.40;;;;;;;;;;5082576;28;20036;-64
2023/09/24 11:04:12;;;;;;;10.05;2.40;;;;;;;;;;5082627;28;20122;-64
2023/09/24 11:06:38;;;;;;;5.22;1.80;;;;;;;;;;5081627;28;20483;-64
2023/09/24 11:09:15;;;;;;;5.13;1.70;;;;;;;;;;5082654;28;20154;-64
2023/09/24 11:11:41;;;;;;;4.18;1.67;;;;;;;;;;5082319;28;20036;-64
2023/09/24 11:14:14;;;;;;;6.07;2.08;;;;;;;;;;5082378;28;20530;-64
2023/09/24 11:16:40;;;;;;;;;;;;;;;;;;5082976;28;20032;-64
2023/09/24 11:19:06;;;;;;;5.25;1.65;;;;;;;;;;5081220;28;20049;-64
2023/09/24 11:21:32;;;;;;;4.80;1.58;;;;;;;;;;5082287;28;20036;-64
2023/09/24 11:23:59;;;;;;;6.15;1.80;;;;;;;;;;5082555;28;20024;-64
2023/09/24 11:26:28;;;;;;;7.50;1.75;;;;;;;;;;5081925;28;20039;-64
2023/09/24 11:28:57;;;;;;;5.50;2.05;;;;;;;;;;5082153;28;20113;-64
2023/09/24 11:31:26;;;;;;;6.80;1.70;;;;;;;;;;5082148;28;20028;-64
2023/09/24 11:33:56;;;;;;;6.57;1.80;;;;;;;;;;5081067;28;20036;-64
2023/09/24 11:36:27;;;;;;;5.68;1.80;;;;;;;;;;5082147;28;20028;-64
2023/09/24 11:39:00;;;;;;;9.07;1.85;;;;;;;;;;5082067;28;21020;-64
2023/09/24 11:41:26;;;;;;;6.82;1.92;;;;;;;;;;5081233;28;20088;-64
2023/09/24 11:43:56;;;;;;;5.68;1.45;;;;;;;;;;5081757;28;20916;-64
2023/09/24 11:46:28;;;;;;;8.73;2.67;;;;;;;;;;5080605;28;20086;-65
2023/09/24 11:48:55;;;;;;;5.78;2.03;;;;;;;;;;5080177;28;20048;-64
2023/09/24 11:51:21;;;;;;;6.53;2.15;;;;;;;;;;5081452;28;20058;-64
2023/09/24 11:53:47;;;;;;;5.88;2.08;;;;;;;;;;5079567;28;20028;-64
2023/09/24 11:56:14;;;;;;;4.93;1.58;;;;;;;;;;5080501;28;20077;-64
2023/09/24 11:58:40;;;;;;;5.10;1.90;;;;;;;;;;5080743;28;20111;-64
2023/09/24 12:01:09;;;;;;;6.22;1.85;;;;;;;;;;5081700;28;20035;-64
2023/09/24 12:03:35;;;;;;;5.43;1.63;;;;;;;;;;5081014;28;20122;-64
2023/09/24 12:06:01;;;;;;;5.60;1.95;;;;;;;;;;5081261;28;20443;-64
2023/09/24 12:08:27;;;;;;;7.07;1.80;;;;;;;;;;5081647;28;20028;-64
2023/09/24 12:10:54;;;;;;;5.68;1.83;;;;;;;;;;5081217;28;20040;-64
2023/09/24 12:13:22;;;;;;;6.53;1.85;;;;;;;;;;5079534;28;20035;-64
2023/09/24 12:15:48;;;;;;;5.40;1.70;;;;;;;;;;5081598;28;20028;-64
2023/09/24 12:18:14;;;;;;;7.82;2.03;;;;;;;;;;5081341;28;20052;-64
2023/09/24 12:20:42;;;;;;;4.03;1.35;;;;;;;;;;5081105;28;20035;-64
2023/09/24 12:23:08;;;;;;;4.35;1.60;;;;;;;;;;5081546;28;20032;-64
2023/09/24 12:25:38;;;;;;;4.43;1.30;;;;;;;;;;5081014;28;20038;-64
2023/09/24 12:28:05;;;;;;;4.95;1.73;;;;;;;;;;5081456;28;20615;-64
2023/09/24 12:30:32;;;;;;;6.18;1.88;;;;;;;;;;5080858;28;20036;-64
2023/09/24 12:32:58;;;;;;;6.57;1.38;;;;;;;;;;5080625;28;20024;-64
2023/09/24 12:35:24;;;;;;;5.13;1.38;;;;;;;;;;5081022;28;21744;-64
2023/09/24 12:37:54;;;;;;;5.07;2.03;;;;;;;;;;5080242;28;20506;-64
2023/09/24 12:40:20;;;;;;;4.32;1.40;;;;;;;;;;5080668;28;20031;-64
2023/09/24 12:42:46;;;;;;;7.05;1.83;;;;;;;;;;5080837;28;20069;-64
2023/09/24 12:45:12;;;;;;;4.43;1.38;;;;;;;;;;5071003;28;20032;-64
2023/09/24 12:47:39;;;;;;;6.68;1.75;;;;;;;;;;5079750;28;20493;-64
2023/09/24 12:50:07;;;;;;;6.30;1.45;;;;;;;;;;5077775;28;20857;-64
2023/09/24 12:52:34;;;;;;;6.55;1.67;;;;;;;;;;5080561;28;20066;-64
2023/09/24 12:55:03;;;;;;;4.05;1.30;;;;;;;;;;5080161;28;20086;-64
2023/09/24 12:57:30;;;;;;;5.30;1.65;;;;;;;;;;5080441;28;20025;-64
2023/09/24 12:59:56;;;;;;;7.10;1.65;;;;;;;;;;5080810;28;20036;-64
2023/09/24 13:02:23;;;;;;;4.32;1.20;;;;;;;;;;5080307;28;21292;-64
2023/09/24 13:04:49;;;;;;;3.85;1.23;;;;;;;;;;5080952;28;20540;-64
2023/09/24 13:07:15;;;;;;;5.88;1.75;;;;;;;;;;5080804;28;20110;-64
2023/09/24 13:09:41;;;;;;;5.22;1.50;;;;;;;;;;5080279;28;21668;-64
2023/09/24 13:12:08;;;;;;;10.55;2.10;;;;;;;;;;5080322;28;20050;-64
2023/09/24 13:14:35;;;;;;;7.15;1.48;;;;;;;;;;5080093;28;20032;-64
2023/09/24 13:17:01;;;;;;;6.00;1.35;;;;;;;;;;5080272;28;20097;-64
2023/09/24 13:19:27;;;;;;;6.32;1.50;;;;;;;;;;5080409;28;20055;-64
2023/09/24 13:21:53;;;;;;;3.50;1.20;;;;;;;;;;5080699;28;20474;-64
2023/09/24 13:24:19;;;;;;;6.07;1.48;;;;;;;;;;5080114;28;20031;-64
2023/09/24 13:26:45;;;;;;;5.10;1.35;;;;;;;;;;5080967;28;20032;-64
2023/09/24 13:29:11;;;;;;;6.28;1.40;;;;;;;;;;5080060;28;20032;-64
2023/09/24 13:31:37;;;;;;;6.03;1.48;;;;;;;;;;5080505;28;20079;-64
2023/09/24 13:34:04;;;;;;;4.57;1.27;;;;;;;;;;5080368;28;20028;-64
2023/09/24 13:36:33;;;;;;;5.20;1.45;;;;;;;;;;5080143;28;20553;-64
2023/09/24 13:38:59;;;;;;;4.95;1.10;;;;;;;;;;5080216;28;20236;-64
2023/09/24 13:41:29;;;;;;;5.45;1.50;;;;;;;;;;5079190;28;20047;-64
2023/09/24 13:43:55;;;;;;;7.47;1.42;;;;;;;;;;5082648;28;20058;-63
2023/09/24 13:46:21;;;;;;;6.90;1.67;;;;;;;;;;5083697;28;20039;-63
2023/09/24 13:48:53;;;;;;;4.78;1.48;;;;;;;;;;5064151;28;20036;-63
2023/09/24 13:51:19;;;;;;;4.97;1.50;;;;;;;;;;5083140;28;20039;-64
2023/09/24 13:53:48;;;;;;;4.50;1.33;;;;;;;;;;5083038;28;20024;-64
2023/09/24 13:56:15;;;;;;;5.53;1.70;;;;;;;;;;5083008;28;20020;-64
2023/09/24 13:58:41;;;;;;;5.25;1.55;;;;;;;;;;5081916;28;20039;-63
2023/09/24 14:01:08;;;;;;;7.72;1.58;;;;;;;;;;5083752;28;20028;-63
2023/09/24 14:03:34;;;;;;;5.93;1.50;;;;;;;;;;5082798;28;20023;-64
2023/09/24 14:06:01;;;;;;;6.10;1.27;;;;;;;;;;5062782;28;20039;-63
2023/09/24 14:13:56;;;;;;;4.55;1.50;;;;;;;;;;5083136;28;20644;-64
2023/09/24 14:16:22;;;;;;;5.68;1.30;;;;;;;;;;5083526;28;20066;-64
2023/09/24 14:18:48;;;;;;;6.38;1.70;;;;;;;;;;5083246;28;20084;-63
2023/09/24 14:21:16;;;;;;;6.43;1.33;;;;;;;;;;5083196;28;20032;-63
2023/09/24 14:23:42;;;;;;;4.78;1.27;;;;;;;;;;5083493;28;20042;-63
2023/09/24 14:26:08;;;;;;;3.97;1.15;;;;;;;;;;5083523;28;20032;-63
2023/09/24 14:28:34;;;;;;;5.95;1.25;;;;;;;;;;5082886;28;20527;-63
2023/09/24 14:31:04;;;;;;;9.40;1.77;;;;;;;;;;5083366;28;20049;-64
2023/09/24 14:33:30;;;;;;;6.78;1.25;;;;;;;;;;5082777;28;20395;-63
2023/09/24 14:35:58;;;;;;;5.93;1.27;;;;;;;;;;5083399;28;20035;-63
2023/09/24 14:38:24;;;;;;;5.90;1.38;;;;;;;;;;5080898;28;20058;-64
2023/09/24 14:40:50;;;;;;;5.35;1.70;;;;;;;;;;5083176;28;20066;-64
2023/09/24 14:43:16;;;;;;;5.97;1.90;;;;;;;;;;5082658;28;20077;-64
2023/09/24 14:45:43;;;;;;;4.13;1.23;;;;;;;;;;5083015;28;20036;-64